<?xml version="1.0" encoding="UTF-8" standalone="no" ?>
<gpx xmlns="http://www.topografix.com/GPX/1/1" creator="MapSource 6.16.3" version="1.1" xmlns:xsi="http://www.w3.org/2001/XMLSchema-instance" xsi:schemaLocation="http://www.topografix.com/GPX/1/1 http://www.topografix.com/GPX/1/1/gpx.xsd">

  <metadata>
    <link href="http://www.garmin.com">
      <text>Garmin International</text>
    </link>
    <time>2016-03-16T19:04:48Z</time>
    <bounds maxlat="54.134429516270757" maxlon="28.709374638274312" minlat="53.890112461522222" minlon="28.047847850248218"/>
  </metadata>

  <trk>
    <name>Pln19032016 on GPSies.com</name>
    <trkseg>
      <trkpt lat="53.890112461522222" lon="28.047847850248218">
        <ele>0</ele>
        <time>2010-01-01T00:00:00Z</time>
      </trkpt>
      <trkpt lat="53.890486378222704" lon="28.048555953428149">
        <ele>0</ele>
        <time>2010-01-01T00:00:22Z</time>
      </trkpt>
      <trkpt lat="53.893343852832913" lon="28.051750212907791">
        <ele>0</ele>
        <time>2010-01-01T00:02:39Z</time>
      </trkpt>
      <trkpt lat="53.894395865499973" lon="28.052726536989212">
        <ele>0</ele>
        <time>2010-01-01T00:03:27Z</time>
      </trkpt>
      <trkpt lat="53.895881054922938" lon="28.053545113652945">
        <ele>0</ele>
        <time>2010-01-01T00:04:29Z</time>
      </trkpt>
      <trkpt lat="53.89566320925951" lon="28.057597428560257">
        <ele>0</ele>
        <time>2010-01-01T00:06:05Z</time>
      </trkpt>
      <trkpt lat="53.895631525665522" lon="28.058627396821976">
        <ele>0</ele>
        <time>2010-01-01T00:06:30Z</time>
      </trkpt>
      <trkpt lat="53.895859681069851" lon="28.059997335076332">
        <ele>0</ele>
        <time>2010-01-01T00:07:03Z</time>
      </trkpt>
      <trkpt lat="53.896753108128905" lon="28.063570037484169">
        <ele>0</ele>
        <time>2010-01-01T00:08:35Z</time>
      </trkpt>
      <trkpt lat="53.898723777383566" lon="28.071970716118813">
        <ele>0</ele>
        <time>2010-01-01T00:12:08Z</time>
      </trkpt>
      <trkpt lat="53.900324134156108" lon="28.079084269702435">
        <ele>0</ele>
        <time>2010-01-01T00:15:08Z</time>
      </trkpt>
      <trkpt lat="53.901021089404821" lon="28.084159009158611">
        <ele>0</ele>
        <time>2010-01-01T00:17:11Z</time>
      </trkpt>
      <trkpt lat="53.902097577229142" lon="28.092778874561191">
        <ele>0</ele>
        <time>2010-01-01T00:20:38Z</time>
      </trkpt>
      <trkpt lat="53.903104998171329" lon="28.100181771442294">
        <ele>0</ele>
        <time>2010-01-01T00:23:38Z</time>
      </trkpt>
      <trkpt lat="53.904169416055083" lon="28.109451485797763">
        <ele>0</ele>
        <time>2010-01-01T00:27:20Z</time>
      </trkpt>
      <trkpt lat="53.905824339017272" lon="28.123441468924284">
        <ele>0</ele>
        <time>2010-01-01T00:32:57Z</time>
      </trkpt>
      <trkpt lat="53.906855648383498" lon="28.123637354001403">
        <ele>0</ele>
        <time>2010-01-01T00:33:38Z</time>
      </trkpt>
      <trkpt lat="53.909364268183708" lon="28.122049486264586">
        <ele>0</ele>
        <time>2010-01-01T00:35:26Z</time>
      </trkpt>
      <trkpt lat="53.913555974140763" lon="28.119981419295073">
        <ele>0</ele>
        <time>2010-01-01T00:38:20Z</time>
      </trkpt>
      <trkpt lat="53.915240820497274" lon="28.126697670668364">
        <ele>0</ele>
        <time>2010-01-01T00:41:12Z</time>
      </trkpt>
      <trkpt lat="53.918950650840998" lon="28.140436448156834">
        <ele>0</ele>
        <time>2010-01-01T00:47:09Z</time>
      </trkpt>
      <trkpt lat="53.919055843725801" lon="28.159513156861067">
        <ele>0</ele>
        <time>2010-01-01T00:54:38Z</time>
      </trkpt>
      <trkpt lat="53.919294560328126" lon="28.188575897365808">
        <ele>0</ele>
        <time>2010-01-01T01:06:04Z</time>
      </trkpt>
      <trkpt lat="53.920269794762135" lon="28.192942533642054">
        <ele>0</ele>
        <time>2010-01-01T01:07:54Z</time>
      </trkpt>
      <trkpt lat="53.920860383659601" lon="28.201911840587854">
        <ele>0</ele>
        <time>2010-01-01T01:11:27Z</time>
      </trkpt>
      <trkpt lat="53.920835070312023" lon="28.205044660717249">
        <ele>0</ele>
        <time>2010-01-01T01:12:40Z</time>
      </trkpt>
      <trkpt lat="53.919988414272666" lon="28.211004864424467">
        <ele>0</ele>
        <time>2010-01-01T01:15:05Z</time>
      </trkpt>
      <trkpt lat="53.919937871396542" lon="28.216197621077299">
        <ele>0</ele>
        <time>2010-01-01T01:17:07Z</time>
      </trkpt>
      <trkpt lat="53.91912910155952" lon="28.221197258681059">
        <ele>0</ele>
        <time>2010-01-01T01:19:10Z</time>
      </trkpt>
      <trkpt lat="53.917185757309198" lon="28.236042698845267">
        <ele>0</ele>
        <time>2010-01-01T01:25:08Z</time>
      </trkpt>
      <trkpt lat="53.916831873357296" lon="28.238746365532279">
        <ele>0</ele>
        <time>2010-01-01T01:26:13Z</time>
      </trkpt>
      <trkpt lat="53.917109901085496" lon="28.24271603487432">
        <ele>0</ele>
        <time>2010-01-01T01:27:48Z</time>
      </trkpt>
      <trkpt lat="53.916867580264807" lon="28.243105793371797">
        <ele>0</ele>
        <time>2010-01-01T01:28:01Z</time>
      </trkpt>
      <trkpt lat="53.917954377830029" lon="28.246667766943574">
        <ele>0</ele>
        <time>2010-01-01T01:29:36Z</time>
      </trkpt>
      <trkpt lat="53.919117031618953" lon="28.249349975958467">
        <ele>0</ele>
        <time>2010-01-01T01:30:54Z</time>
      </trkpt>
      <trkpt lat="53.919674260541797" lon="28.255196437239647">
        <ele>0</ele>
        <time>2010-01-01T01:33:14Z</time>
      </trkpt>
      <trkpt lat="53.920773630961776" lon="28.257771441712976">
        <ele>0</ele>
        <time>2010-01-01T01:34:29Z</time>
      </trkpt>
      <trkpt lat="53.921481315046549" lon="28.262062892317772">
        <ele>0</ele>
        <time>2010-01-01T01:36:14Z</time>
      </trkpt>
      <trkpt lat="53.92182245850563" lon="28.262685164809227">
        <ele>0</ele>
        <time>2010-01-01T01:36:34Z</time>
      </trkpt>
      <trkpt lat="53.925966722890735" lon="28.267096811905503">
        <ele>0</ele>
        <time>2010-01-01T01:39:50Z</time>
      </trkpt>
      <trkpt lat="53.92134209163487" lon="28.273984640836716">
        <ele>0</ele>
        <time>2010-01-01T01:43:56Z</time>
      </trkpt>
      <trkpt lat="53.919711979106069" lon="28.276581019163132">
        <ele>0</ele>
        <time>2010-01-01T01:45:25Z</time>
      </trkpt>
      <trkpt lat="53.918296610936522" lon="28.281258791685104">
        <ele>0</ele>
        <time>2010-01-01T01:47:29Z</time>
      </trkpt>
      <trkpt lat="53.917538383975625" lon="28.283533388748765">
        <ele>0</ele>
        <time>2010-01-01T01:48:31Z</time>
      </trkpt>
      <trkpt lat="53.917513154447079" lon="28.287309939041734">
        <ele>0</ele>
        <time>2010-01-01T01:50:00Z</time>
      </trkpt>
      <trkpt lat="53.917197156697512" lon="28.288189619779587">
        <ele>0</ele>
        <time>2010-01-01T01:50:24Z</time>
      </trkpt>
      <trkpt lat="53.916426273062825" lon="28.288854891434312">
        <ele>0</ele>
        <time>2010-01-01T01:50:59Z</time>
      </trkpt>
      <trkpt lat="53.915708865970373" lon="28.294055862352252">
        <ele>0</ele>
        <time>2010-01-01T01:53:05Z</time>
      </trkpt>
      <trkpt lat="53.914001891389489" lon="28.303899234160781">
        <ele>0</ele>
        <time>2010-01-01T01:57:07Z</time>
      </trkpt>
      <trkpt lat="53.912320900708437" lon="28.309821551665664">
        <ele>0</ele>
        <time>2010-01-01T01:59:42Z</time>
      </trkpt>
      <trkpt lat="53.911409117281437" lon="28.312851022928953">
        <ele>0</ele>
        <time>2010-01-01T02:01:02Z</time>
      </trkpt>
      <trkpt lat="53.906125333160162" lon="28.317927438765764">
        <ele>0</ele>
        <time>2010-01-01T02:05:05Z</time>
      </trkpt>
      <trkpt lat="53.904507290571928" lon="28.3195367641747">
        <ele>0</ele>
        <time>2010-01-01T02:06:20Z</time>
      </trkpt>
      <trkpt lat="53.902787994593382" lon="28.322047311812639">
        <ele>0</ele>
        <time>2010-01-01T02:07:51Z</time>
      </trkpt>
      <trkpt lat="53.898370144888759" lon="28.330681594088674">
        <ele>0</ele>
        <time>2010-01-01T02:12:21Z</time>
      </trkpt>
      <trkpt lat="53.896321943029761" lon="28.338814051821828">
        <ele>0</ele>
        <time>2010-01-01T02:15:49Z</time>
      </trkpt>
      <trkpt lat="53.897535726428032" lon="28.351152213290334">
        <ele>0</ele>
        <time>2010-01-01T02:20:44Z</time>
      </trkpt>
      <trkpt lat="53.902685148641467" lon="28.402335802093148">
        <ele>0</ele>
        <time>2010-01-01T02:41:09Z</time>
      </trkpt>
      <trkpt lat="53.900593025609851" lon="28.438199115917087">
        <ele>0</ele>
        <time>2010-01-01T02:55:19Z</time>
      </trkpt>
      <trkpt lat="53.900084495544434" lon="28.448026729747653">
        <ele>0</ele>
        <time>2010-01-01T02:59:12Z</time>
      </trkpt>
      <trkpt lat="53.899641009047627" lon="28.456008983775973">
        <ele>0</ele>
        <time>2010-01-01T03:02:21Z</time>
      </trkpt>
      <trkpt lat="53.898250870406628" lon="28.478883281350136">
        <ele>0</ele>
        <time>2010-01-01T03:11:23Z</time>
      </trkpt>
      <trkpt lat="53.897898914292455" lon="28.486072523519397">
        <ele>0</ele>
        <time>2010-01-01T03:14:13Z</time>
      </trkpt>
      <trkpt lat="53.898543734103441" lon="28.48823974840343">
        <ele>0</ele>
        <time>2010-01-01T03:15:10Z</time>
      </trkpt>
      <trkpt lat="53.898948328569531" lon="28.490278227254748">
        <ele>0</ele>
        <time>2010-01-01T03:16:01Z</time>
      </trkpt>
      <trkpt lat="53.89815179631114" lon="28.496264917775989">
        <ele>0</ele>
        <time>2010-01-01T03:18:26Z</time>
      </trkpt>
      <trkpt lat="53.898254055529833" lon="28.498663315549493">
        <ele>0</ele>
        <time>2010-01-01T03:19:23Z</time>
      </trkpt>
      <trkpt lat="53.898862330242991" lon="28.501109490171075">
        <ele>0</ele>
        <time>2010-01-01T03:20:25Z</time>
      </trkpt>
      <trkpt lat="53.899736814200878" lon="28.503405461087823">
        <ele>0</ele>
        <time>2010-01-01T03:21:30Z</time>
      </trkpt>
      <trkpt lat="53.905758960172534" lon="28.529123570770025">
        <ele>0</ele>
        <time>2010-01-01T03:32:22Z</time>
      </trkpt>
      <trkpt lat="53.906603772193193" lon="28.530230149626732">
        <ele>0</ele>
        <time>2010-01-01T03:33:05Z</time>
      </trkpt>
      <trkpt lat="53.907325956970453" lon="28.533062562346458">
        <ele>0</ele>
        <time>2010-01-01T03:34:18Z</time>
      </trkpt>
      <trkpt lat="53.908428261056542" lon="28.536560162901878">
        <ele>0</ele>
        <time>2010-01-01T03:35:52Z</time>
      </trkpt>
      <trkpt lat="53.909251783043146" lon="28.539456948637962">
        <ele>0</ele>
        <time>2010-01-01T03:37:07Z</time>
      </trkpt>
      <trkpt lat="53.910354003310204" lon="28.539993390440941">
        <ele>0</ele>
        <time>2010-01-01T03:37:53Z</time>
      </trkpt>
      <trkpt lat="53.912234315648675" lon="28.541017826646566">
        <ele>0</ele>
        <time>2010-01-01T03:39:12Z</time>
      </trkpt>
      <trkpt lat="53.914970671758056" lon="28.544558342546225">
        <ele>0</ele>
        <time>2010-01-01T03:41:30Z</time>
      </trkpt>
      <trkpt lat="53.915161695331335" lon="28.548369677737355">
        <ele>0</ele>
        <time>2010-01-01T03:43:00Z</time>
      </trkpt>
      <trkpt lat="53.914528274908662" lon="28.550880225375295">
        <ele>0</ele>
        <time>2010-01-01T03:44:05Z</time>
      </trkpt>
      <trkpt lat="53.913388168439269" lon="28.555708201602101">
        <ele>0</ele>
        <time>2010-01-01T03:46:07Z</time>
      </trkpt>
      <trkpt lat="53.914287546649575" lon="28.559763701632619">
        <ele>0</ele>
        <time>2010-01-01T03:47:49Z</time>
      </trkpt>
      <trkpt lat="53.916077753528953" lon="28.567355694249272">
        <ele>0</ele>
        <time>2010-01-01T03:51:02Z</time>
      </trkpt>
      <trkpt lat="53.916204404085875" lon="28.569823326542974">
        <ele>0</ele>
        <time>2010-01-01T03:52:01Z</time>
      </trkpt>
      <trkpt lat="53.918167781084776" lon="28.572012009099126">
        <ele>0</ele>
        <time>2010-01-01T03:53:35Z</time>
      </trkpt>
      <trkpt lat="53.929338259622455" lon="28.595595331862569">
        <ele>0</ele>
        <time>2010-01-01T04:05:28Z</time>
      </trkpt>
      <trkpt lat="53.929796917364001" lon="28.599556619301438">
        <ele>0</ele>
        <time>2010-01-01T04:07:03Z</time>
      </trkpt>
      <trkpt lat="53.930581966415048" lon="28.602152997627854">
        <ele>0</ele>
        <time>2010-01-01T04:08:12Z</time>
      </trkpt>
      <trkpt lat="53.931050514802337" lon="28.605929547920823">
        <ele>0</ele>
        <time>2010-01-01T04:09:43Z</time>
      </trkpt>
      <trkpt lat="53.931367099285126" lon="28.611594373360276">
        <ele>0</ele>
        <time>2010-01-01T04:11:57Z</time>
      </trkpt>
      <trkpt lat="53.930756393820047" lon="28.619884746149182">
        <ele>0</ele>
        <time>2010-01-01T04:15:14Z</time>
      </trkpt>
      <trkpt lat="53.930984297767282" lon="28.62694432027638">
        <ele>0</ele>
        <time>2010-01-01T04:18:01Z</time>
      </trkpt>
      <trkpt lat="53.931864481419325" lon="28.633220940828323">
        <ele>0</ele>
        <time>2010-01-01T04:20:33Z</time>
      </trkpt>
      <trkpt lat="53.934510899707675" lon="28.639615327119827">
        <ele>0</ele>
        <time>2010-01-01T04:23:37Z</time>
      </trkpt>
      <trkpt lat="53.939818572252989" lon="28.652673996984959">
        <ele>0</ele>
        <time>2010-01-01T04:29:51Z</time>
      </trkpt>
      <trkpt lat="53.940679477527738" lon="28.652867116034031">
        <ele>0</ele>
        <time>2010-01-01T04:30:26Z</time>
      </trkpt>
      <trkpt lat="53.941717576235533" lon="28.654369153082371">
        <ele>0</ele>
        <time>2010-01-01T04:31:20Z</time>
      </trkpt>
      <trkpt lat="53.94270496442914" lon="28.65763071924448">
        <ele>0</ele>
        <time>2010-01-01T04:32:47Z</time>
      </trkpt>
      <trkpt lat="53.943730406463146" lon="28.661536015570164">
        <ele>0</ele>
        <time>2010-01-01T04:34:27Z</time>
      </trkpt>
      <trkpt lat="53.944034166634083" lon="28.664561547338963">
        <ele>0</ele>
        <time>2010-01-01T04:35:40Z</time>
      </trkpt>
      <trkpt lat="53.944375980645418" lon="28.665720261633396">
        <ele>0</ele>
        <time>2010-01-01T04:36:10Z</time>
      </trkpt>
      <trkpt lat="53.946645297110081" lon="28.66902063600719">
        <ele>0</ele>
        <time>2010-01-01T04:38:10Z</time>
      </trkpt>
      <trkpt lat="53.948476407676935" lon="28.673204882070422">
        <ele>0</ele>
        <time>2010-01-01T04:40:13Z</time>
      </trkpt>
      <trkpt lat="53.948707999661565" lon="28.674783613532782">
        <ele>0</ele>
        <time>2010-01-01T04:40:51Z</time>
      </trkpt>
      <trkpt lat="53.950160248205066" lon="28.675727751106024">
        <ele>0</ele>
        <time>2010-01-01T04:41:53Z</time>
      </trkpt>
      <trkpt lat="53.952938178554177" lon="28.681349661201239">
        <ele>0</ele>
        <time>2010-01-01T04:44:46Z</time>
      </trkpt>
      <trkpt lat="53.956815227866173" lon="28.686756491661072">
        <ele>0</ele>
        <time>2010-01-01T04:48:07Z</time>
      </trkpt>
      <trkpt lat="53.95816613920033" lon="28.690683245658875">
        <ele>0</ele>
        <time>2010-01-01T04:49:54Z</time>
      </trkpt>
      <trkpt lat="53.958645919337869" lon="28.693172335624695">
        <ele>0</ele>
        <time>2010-01-01T04:50:56Z</time>
      </trkpt>
      <trkpt lat="53.956019869074225" lon="28.6955326795578">
        <ele>0</ele>
        <time>2010-01-01T04:52:55Z</time>
      </trkpt>
      <trkpt lat="53.955729436129332" lon="28.696348071098328">
        <ele>0</ele>
        <time>2010-01-01T04:53:17Z</time>
      </trkpt>
      <trkpt lat="53.955555930733681" lon="28.696573376655579">
        <ele>0</ele>
        <time>2010-01-01T04:53:26Z</time>
      </trkpt>
      <trkpt lat="53.956720177084208" lon="28.699373602867126">
        <ele>0</ele>
        <time>2010-01-01T04:54:47Z</time>
      </trkpt>
      <trkpt lat="53.956030430272222" lon="28.700339198112488">
        <ele>0</ele>
        <time>2010-01-01T04:55:22Z</time>
      </trkpt>
      <trkpt lat="53.955669840797782" lon="28.69954526424408">
        <ele>0</ele>
        <time>2010-01-01T04:55:46Z</time>
      </trkpt>
      <trkpt lat="53.955967230722308" lon="28.700510859489441">
        <ele>0</ele>
        <time>2010-01-01T04:56:12Z</time>
      </trkpt>
      <trkpt lat="53.956783460453153" lon="28.699470162391663">
        <ele>0</ele>
        <time>2010-01-01T04:56:53Z</time>
      </trkpt>
      <trkpt lat="53.955555930733681" lon="28.696358799934387">
        <ele>0</ele>
        <time>2010-01-01T04:58:21Z</time>
      </trkpt>
      <trkpt lat="53.958502756431699" lon="28.693073596805334">
        <ele>0</ele>
        <time>2010-01-01T05:00:42Z</time>
      </trkpt>
      <trkpt lat="53.959226869046688" lon="28.692183773964643">
        <ele>0</ele>
        <time>2010-01-01T05:01:18Z</time>
      </trkpt>
      <trkpt lat="53.9600620418787" lon="28.691668789833784">
        <ele>0</ele>
        <time>2010-01-01T05:01:53Z</time>
      </trkpt>
      <trkpt lat="53.961998093873262" lon="28.692655842751265">
        <ele>0</ele>
        <time>2010-01-01T05:03:14Z</time>
      </trkpt>
      <trkpt lat="53.962858496233821" lon="28.693557064980268">
        <ele>0</ele>
        <time>2010-01-01T05:03:55Z</time>
      </trkpt>
      <trkpt lat="53.963614795356989" lon="28.694458287209272">
        <ele>0</ele>
        <time>2010-01-01T05:04:32Z</time>
      </trkpt>
      <trkpt lat="53.966803271323442" lon="28.69452266022563">
        <ele>0</ele>
        <time>2010-01-01T05:06:39Z</time>
      </trkpt>
      <trkpt lat="53.96904987283051" lon="28.693111315369606">
        <ele>0</ele>
        <time>2010-01-01T05:08:15Z</time>
      </trkpt>
      <trkpt lat="53.970669759437442" lon="28.692699009552598">
        <ele>0</ele>
        <time>2010-01-01T05:09:21Z</time>
      </trkpt>
      <trkpt lat="53.973199836909771" lon="28.692312771454453">
        <ele>0</ele>
        <time>2010-01-01T05:11:02Z</time>
      </trkpt>
      <trkpt lat="53.973819678649306" lon="28.692420059815049">
        <ele>0</ele>
        <time>2010-01-01T05:11:27Z</time>
      </trkpt>
      <trkpt lat="53.974401550367475" lon="28.692248398438096">
        <ele>0</ele>
        <time>2010-01-01T05:11:51Z</time>
      </trkpt>
      <trkpt lat="53.97536295466125" lon="28.691561752930284">
        <ele>0</ele>
        <time>2010-01-01T05:12:33Z</time>
      </trkpt>
      <trkpt lat="53.97637490183115" lon="28.691626125946641">
        <ele>0</ele>
        <time>2010-01-01T05:13:13Z</time>
      </trkpt>
      <trkpt lat="53.97838220000267" lon="28.691548006609082">
        <ele>0</ele>
        <time>2010-01-01T05:14:34Z</time>
      </trkpt>
      <trkpt lat="53.979343520477414" lon="28.691462175920606">
        <ele>0</ele>
        <time>2010-01-01T05:15:12Z</time>
      </trkpt>
      <trkpt lat="53.980911858379841" lon="28.69184841401875">
        <ele>0</ele>
        <time>2010-01-01T05:16:15Z</time>
      </trkpt>
      <trkpt lat="53.981506302952766" lon="28.691633837297559">
        <ele>0</ele>
        <time>2010-01-01T05:16:40Z</time>
      </trkpt>
      <trkpt lat="53.98231565952301" lon="28.692234652116895">
        <ele>0</ele>
        <time>2010-01-01T05:17:15Z</time>
      </trkpt>
      <trkpt lat="53.982960730791092" lon="28.692170279100537">
        <ele>0</ele>
        <time>2010-01-01T05:17:41Z</time>
      </trkpt>
      <trkpt lat="53.983883913606405" lon="28.69410146959126">
        <ele>0</ele>
        <time>2010-01-01T05:18:40Z</time>
      </trkpt>
      <trkpt lat="53.986210897564888" lon="28.69510998018086">
        <ele>0</ele>
        <time>2010-01-01T05:20:16Z</time>
      </trkpt>
      <trkpt lat="53.988069836050272" lon="28.697727816179395">
        <ele>0</ele>
        <time>2010-01-01T05:21:52Z</time>
      </trkpt>
      <trkpt lat="53.989234669134021" lon="28.698829868808389">
        <ele>0</ele>
        <time>2010-01-01T05:22:46Z</time>
      </trkpt>
      <trkpt lat="53.995023546740413" lon="28.701052917167544">
        <ele>0</ele>
        <time>2010-01-01T05:26:43Z</time>
      </trkpt>
      <trkpt lat="53.995617823675275" lon="28.702274244278669">
        <ele>0</ele>
        <time>2010-01-01T05:27:21Z</time>
      </trkpt>
      <trkpt lat="53.99701165035367" lon="28.701952379196882">
        <ele>0</ele>
        <time>2010-01-01T05:28:17Z</time>
      </trkpt>
      <trkpt lat="53.999630575999618" lon="28.70176169089973">
        <ele>0</ele>
        <time>2010-01-01T05:30:02Z</time>
      </trkpt>
      <trkpt lat="54.003336383029819" lon="28.701569410040975">
        <ele>0</ele>
        <time>2010-01-01T05:32:30Z</time>
      </trkpt>
      <trkpt lat="54.004547065123916" lon="28.703328939154744">
        <ele>0</ele>
        <time>2010-01-01T05:33:34Z</time>
      </trkpt>
      <trkpt lat="54.00623694062233" lon="28.704401738941669">
        <ele>0</ele>
        <time>2010-01-01T05:34:46Z</time>
      </trkpt>
      <trkpt lat="54.008052796125412" lon="28.709143968299031">
        <ele>0</ele>
        <time>2010-01-01T05:36:59Z</time>
      </trkpt>
      <trkpt lat="54.008182045072317" lon="28.709374638274312">
        <ele>0</ele>
        <time>2010-01-01T05:37:07Z</time>
      </trkpt>
      <trkpt lat="54.009420974180102" lon="28.706531496718526">
        <ele>0</ele>
        <time>2010-01-01T05:38:30Z</time>
      </trkpt>
      <trkpt lat="54.010108206421137" lon="28.705340595915914">
        <ele>0</ele>
        <time>2010-01-01T05:39:09Z</time>
      </trkpt>
      <trkpt lat="54.011671766638756" lon="28.702958710491657">
        <ele>0</ele>
        <time>2010-01-01T05:40:33Z</time>
      </trkpt>
      <trkpt lat="54.012768706306815" lon="28.70104193687439">
        <ele>0</ele>
        <time>2010-01-01T05:41:36Z</time>
      </trkpt>
      <trkpt lat="54.013720639050007" lon="28.699550628662109">
        <ele>0</ele>
        <time>2010-01-01T05:42:28Z</time>
      </trkpt>
      <trkpt lat="54.016151977702975" lon="28.694338258355856">
        <ele>0</ele>
        <time>2010-01-01T05:45:05Z</time>
      </trkpt>
      <trkpt lat="54.017319325357676" lon="28.693093713372946">
        <ele>0</ele>
        <time>2010-01-01T05:46:00Z</time>
      </trkpt>
      <trkpt lat="54.018911551684141" lon="28.691162522882223">
        <ele>0</ele>
        <time>2010-01-01T05:47:18Z</time>
      </trkpt>
      <trkpt lat="54.01982132345438" lon="28.689317163079977">
        <ele>0</ele>
        <time>2010-01-01T05:48:15Z</time>
      </trkpt>
      <trkpt lat="54.020731095224619" lon="28.687343057245016">
        <ele>0</ele>
        <time>2010-01-01T05:49:14Z</time>
      </trkpt>
      <trkpt lat="54.022040599957108" lon="28.683701874688268">
        <ele>0</ele>
        <time>2010-01-01T05:50:54Z</time>
      </trkpt>
      <trkpt lat="54.023455716669559" lon="28.680011155083776">
        <ele>0</ele>
        <time>2010-01-01T05:52:38Z</time>
      </trkpt>
      <trkpt lat="54.024441260844469" lon="28.678509118035436">
        <ele>0</ele>
        <time>2010-01-01T05:53:31Z</time>
      </trkpt>
      <trkpt lat="54.025628892704844" lon="28.675719620659947">
        <ele>0</ele>
        <time>2010-01-01T05:54:52Z</time>
      </trkpt>
      <trkpt lat="54.025704665109515" lon="28.674303414300084">
        <ele>0</ele>
        <time>2010-01-01T05:55:25Z</time>
      </trkpt>
      <trkpt lat="54.026740668341517" lon="28.667823197320104">
        <ele>0</ele>
        <time>2010-01-01T05:58:03Z</time>
      </trkpt>
      <trkpt lat="54.026917526498437" lon="28.664475800469518">
        <ele>0</ele>
        <time>2010-01-01T05:59:22Z</time>
      </trkpt>
      <trkpt lat="54.027855712920427" lon="28.658749032765627">
        <ele>0</ele>
        <time>2010-01-01T06:01:42Z</time>
      </trkpt>
      <trkpt lat="54.030199963599443" lon="28.649093080312014">
        <ele>0</ele>
        <time>2010-01-01T06:05:48Z</time>
      </trkpt>
      <trkpt lat="54.031157847493887" lon="28.643084932118654">
        <ele>0</ele>
        <time>2010-01-01T06:08:14Z</time>
      </trkpt>
      <trkpt lat="54.034258062019944" lon="28.635188508778811">
        <ele>0</ele>
        <time>2010-01-01T06:11:57Z</time>
      </trkpt>
      <trkpt lat="54.037862112745643" lon="28.630081582814455">
        <ele>0</ele>
        <time>2010-01-01T06:15:05Z</time>
      </trkpt>
      <trkpt lat="54.038895349949598" lon="28.628236223012209">
        <ele>0</ele>
        <time>2010-01-01T06:16:05Z</time>
      </trkpt>
      <trkpt lat="54.041869919747114" lon="28.624180722981691">
        <ele>0</ele>
        <time>2010-01-01T06:18:37Z</time>
      </trkpt>
      <trkpt lat="54.040531245991588" lon="28.620833326131105">
        <ele>0</ele>
        <time>2010-01-01T06:20:13Z</time>
      </trkpt>
      <trkpt lat="54.040114413946867" lon="28.619803357869387">
        <ele>0</ele>
        <time>2010-01-01T06:20:42Z</time>
      </trkpt>
      <trkpt lat="54.039596579968929" lon="28.619095254689455">
        <ele>0</ele>
        <time>2010-01-01T06:21:09Z</time>
      </trkpt>
      <trkpt lat="54.039571350440383" lon="28.618129659444094">
        <ele>0</ele>
        <time>2010-01-01T06:21:31Z</time>
      </trkpt>
      <trkpt lat="54.03935668990016" lon="28.61671345308423">
        <ele>0</ele>
        <time>2010-01-01T06:22:06Z</time>
      </trkpt>
      <trkpt lat="54.035908542573452" lon="28.605898786336184">
        <ele>0</ele>
        <time>2010-01-01T06:26:55Z</time>
      </trkpt>
      <trkpt lat="54.035537475720048" lon="28.604852389544249">
        <ele>0</ele>
        <time>2010-01-01T06:27:24Z</time>
      </trkpt>
      <trkpt lat="54.035183759406209" lon="28.60405845567584">
        <ele>0</ele>
        <time>2010-01-01T06:27:47Z</time>
      </trkpt>
      <trkpt lat="54.035032214596868" lon="28.603092860430479">
        <ele>0</ele>
        <time>2010-01-01T06:28:11Z</time>
      </trkpt>
      <trkpt lat="54.033983806148171" lon="28.60006732866168">
        <ele>0</ele>
        <time>2010-01-01T06:29:33Z</time>
      </trkpt>
      <trkpt lat="54.033516431227326" lon="28.597063254565001">
        <ele>0</ele>
        <time>2010-01-01T06:30:46Z</time>
      </trkpt>
      <trkpt lat="54.033251143991947" lon="28.59508914873004">
        <ele>0</ele>
        <time>2010-01-01T06:31:34Z</time>
      </trkpt>
      <trkpt lat="54.033175371587276" lon="28.593479823321104">
        <ele>0</ele>
        <time>2010-01-01T06:32:12Z</time>
      </trkpt>
      <trkpt lat="54.03357963077724" lon="28.591956328600645">
        <ele>0</ele>
        <time>2010-01-01T06:32:51Z</time>
      </trkpt>
      <trkpt lat="54.038815218955278" lon="28.584309099242091">
        <ele>0</ele>
        <time>2010-01-01T06:37:27Z</time>
      </trkpt>
      <trkpt lat="54.039077823981643" lon="28.580407910048962">
        <ele>0</ele>
        <time>2010-01-01T06:39:00Z</time>
      </trkpt>
      <trkpt lat="54.039241690188646" lon="28.578787855803967">
        <ele>0</ele>
        <time>2010-01-01T06:39:38Z</time>
      </trkpt>
      <trkpt lat="54.03939918614924" lon="28.57694249600172">
        <ele>0</ele>
        <time>2010-01-01T06:40:22Z</time>
      </trkpt>
      <trkpt lat="54.041402628645301" lon="28.575247339904308">
        <ele>0</ele>
        <time>2010-01-01T06:41:52Z</time>
      </trkpt>
      <trkpt lat="54.043588628992438" lon="28.573777489364147">
        <ele>0</ele>
        <time>2010-01-01T06:43:26Z</time>
      </trkpt>
      <trkpt lat="54.046681635081768" lon="28.571599535644054">
        <ele>0</ele>
        <time>2010-01-01T06:45:40Z</time>
      </trkpt>
      <trkpt lat="54.047128893435001" lon="28.571245400235057">
        <ele>0</ele>
        <time>2010-01-01T06:45:59Z</time>
      </trkpt>
      <trkpt lat="54.048149306327105" lon="28.571739010512829">
        <ele>0</ele>
        <time>2010-01-01T06:46:42Z</time>
      </trkpt>
      <trkpt lat="54.049729378893971" lon="28.571402980014682">
        <ele>0</ele>
        <time>2010-01-01T06:47:46Z</time>
      </trkpt>
      <trkpt lat="54.050510404631495" lon="28.571499539539218">
        <ele>0</ele>
        <time>2010-01-01T06:48:17Z</time>
      </trkpt>
      <trkpt lat="54.052304048091173" lon="28.570869052782655">
        <ele>0</ele>
        <time>2010-01-01T06:49:30Z</time>
      </trkpt>
      <trkpt lat="54.05335589312017" lon="28.570386255159974">
        <ele>0</ele>
        <time>2010-01-01T06:50:14Z</time>
      </trkpt>
      <trkpt lat="54.054464399814606" lon="28.570288773626089">
        <ele>0</ele>
        <time>2010-01-01T06:50:58Z</time>
      </trkpt>
      <trkpt lat="54.056208841502666" lon="28.568915482610464">
        <ele>0</ele>
        <time>2010-01-01T06:52:15Z</time>
      </trkpt>
      <trkpt lat="54.057871727272868" lon="28.566183736547828">
        <ele>0</ele>
        <time>2010-01-01T06:53:48Z</time>
      </trkpt>
      <trkpt lat="54.060009280219674" lon="28.564148610457778">
        <ele>0</ele>
        <time>2010-01-01T06:55:26Z</time>
      </trkpt>
      <trkpt lat="54.061444932594895" lon="28.562689488753676">
        <ele>0</ele>
        <time>2010-01-01T06:56:33Z</time>
      </trkpt>
      <trkpt lat="54.063357599079609" lon="28.55980334803462">
        <ele>0</ele>
        <time>2010-01-01T06:58:15Z</time>
      </trkpt>
      <trkpt lat="54.064113143831491" lon="28.558762650936842">
        <ele>0</ele>
        <time>2010-01-01T06:58:54Z</time>
      </trkpt>
      <trkpt lat="54.065430611371994" lon="28.559258105233312">
        <ele>0</ele>
        <time>2010-01-01T06:59:48Z</time>
      </trkpt>
      <trkpt lat="54.072576519101858" lon="28.563512926921248">
        <ele>0</ele>
        <time>2010-01-01T07:04:51Z</time>
      </trkpt>
      <trkpt lat="54.073684522882104" lon="28.561088209971786">
        <ele>0</ele>
        <time>2010-01-01T07:06:03Z</time>
      </trkpt>
      <trkpt lat="54.07435180619359" lon="28.558770781382918">
        <ele>0</ele>
        <time>2010-01-01T07:07:04Z</time>
      </trkpt>
      <trkpt lat="54.07717851921916" lon="28.551276186481118">
        <ele>0</ele>
        <time>2010-01-01T07:10:33Z</time>
      </trkpt>
      <trkpt lat="54.077933812513947" lon="28.550439337268472">
        <ele>0</ele>
        <time>2010-01-01T07:11:09Z</time>
      </trkpt>
      <trkpt lat="54.082876536995173" lon="28.548316033557057">
        <ele>0</ele>
        <time>2010-01-01T07:14:33Z</time>
      </trkpt>
      <trkpt lat="54.08726966008544" lon="28.54657469317317">
        <ele>0</ele>
        <time>2010-01-01T07:17:34Z</time>
      </trkpt>
      <trkpt lat="54.088326869532466" lon="28.547540288418531">
        <ele>0</ele>
        <time>2010-01-01T07:18:22Z</time>
      </trkpt>
      <trkpt lat="54.089761599898338" lon="28.549385648220778">
        <ele>0</ele>
        <time>2010-01-01T07:19:33Z</time>
      </trkpt>
      <trkpt lat="54.091397663578391" lon="28.549471478909254">
        <ele>0</ele>
        <time>2010-01-01T07:20:39Z</time>
      </trkpt>
      <trkpt lat="54.092707922682166" lon="28.549071913585067">
        <ele>0</ele>
        <time>2010-01-01T07:21:32Z</time>
      </trkpt>
      <trkpt lat="54.094205433502793" lon="28.547934656962752">
        <ele>0</ele>
        <time>2010-01-01T07:22:38Z</time>
      </trkpt>
      <trkpt lat="54.095312766730785" lon="28.545788889750838">
        <ele>0</ele>
        <time>2010-01-01T07:23:45Z</time>
      </trkpt>
      <trkpt lat="54.095690287649632" lon="28.54424393735826">
        <ele>0</ele>
        <time>2010-01-01T07:24:24Z</time>
      </trkpt>
      <trkpt lat="54.095803527161479" lon="28.542334204539657">
        <ele>0</ele>
        <time>2010-01-01T07:25:09Z</time>
      </trkpt>
      <trkpt lat="54.096150286495686" lon="28.540499992668629">
        <ele>0</ele>
        <time>2010-01-01T07:25:55Z</time>
      </trkpt>
      <trkpt lat="54.096930474042892" lon="28.538761921226978">
        <ele>0</ele>
        <time>2010-01-01T07:26:46Z</time>
      </trkpt>
      <trkpt lat="54.097987432032824" lon="28.53796798735857">
        <ele>0</ele>
        <time>2010-01-01T07:27:32Z</time>
      </trkpt>
      <trkpt lat="54.099666411057115" lon="28.537332806736231">
        <ele>0</ele>
        <time>2010-01-01T07:28:41Z</time>
      </trkpt>
      <trkpt lat="54.100849181413651" lon="28.537010941654444">
        <ele>0</ele>
        <time>2010-01-01T07:29:29Z</time>
      </trkpt>
      <trkpt lat="54.102824460715055" lon="28.536925110965967">
        <ele>0</ele>
        <time>2010-01-01T07:30:48Z</time>
      </trkpt>
      <trkpt lat="54.104220969602466" lon="28.536174092441797">
        <ele>0</ele>
        <time>2010-01-01T07:31:47Z</time>
      </trkpt>
      <trkpt lat="54.108361797407269" lon="28.531523142009974">
        <ele>0</ele>
        <time>2010-01-01T07:35:05Z</time>
      </trkpt>
      <trkpt lat="54.109529564157128" lon="28.530314890667796">
        <ele>0</ele>
        <time>2010-01-01T07:36:00Z</time>
      </trkpt>
      <trkpt lat="54.111919580027461" lon="28.529113261029124">
        <ele>0</ele>
        <time>2010-01-01T07:37:40Z</time>
      </trkpt>
      <trkpt lat="54.11430942825973" lon="28.528555361554027">
        <ele>0</ele>
        <time>2010-01-01T07:39:16Z</time>
      </trkpt>
      <trkpt lat="54.116761218756437" lon="28.529028687626123">
        <ele>0</ele>
        <time>2010-01-01T07:40:55Z</time>
      </trkpt>
      <trkpt lat="54.118031496182084" lon="28.526217732578516">
        <ele>0</ele>
        <time>2010-01-01T07:42:18Z</time>
      </trkpt>
      <trkpt lat="54.118924420326948" lon="28.522848878055811">
        <ele>0</ele>
        <time>2010-01-01T07:43:45Z</time>
      </trkpt>
      <trkpt lat="54.11945273168385" lon="28.519244827330112">
        <ele>0</ele>
        <time>2010-01-01T07:45:12Z</time>
      </trkpt>
      <trkpt lat="54.119163388386369" lon="28.517678417265415">
        <ele>0</ele>
        <time>2010-01-01T07:45:51Z</time>
      </trkpt>
      <trkpt lat="54.119050232693553" lon="28.514846004545689">
        <ele>0</ele>
        <time>2010-01-01T07:46:57Z</time>
      </trkpt>
      <trkpt lat="54.119201190769672" lon="28.513279594480991">
        <ele>0</ele>
        <time>2010-01-01T07:47:35Z</time>
      </trkpt>
      <trkpt lat="54.119477877393365" lon="28.51031843572855">
        <ele>0</ele>
        <time>2010-01-01T07:48:45Z</time>
      </trkpt>
      <trkpt lat="54.119891272857785" lon="28.508662087842822">
        <ele>0</ele>
        <time>2010-01-01T07:49:27Z</time>
      </trkpt>
      <trkpt lat="54.119664877653122" lon="28.504906995221972">
        <ele>0</ele>
        <time>2010-01-01T07:50:56Z</time>
      </trkpt>
      <trkpt lat="54.119891272857785" lon="28.499993188306689">
        <ele>0</ele>
        <time>2010-01-01T07:52:51Z</time>
      </trkpt>
      <trkpt lat="54.120369208976626" lon="28.496581418439746">
        <ele>0</ele>
        <time>2010-01-01T07:54:14Z</time>
      </trkpt>
      <trkpt lat="54.121280824765563" lon="28.491773223504424">
        <ele>0</ele>
        <time>2010-01-01T07:56:12Z</time>
      </trkpt>
      <trkpt lat="54.121796395629644" lon="28.489026641473174">
        <ele>0</ele>
        <time>2010-01-01T07:57:20Z</time>
      </trkpt>
      <trkpt lat="54.12233711220324" lon="28.48812541924417">
        <ele>0</ele>
        <time>2010-01-01T07:57:50Z</time>
      </trkpt>
      <trkpt lat="54.123267754912376" lon="28.487224197015166">
        <ele>0</ele>
        <time>2010-01-01T07:58:33Z</time>
      </trkpt>
      <trkpt lat="54.123896481469274" lon="28.486687755212188">
        <ele>0</ele>
        <time>2010-01-01T07:59:01Z</time>
      </trkpt>
      <trkpt lat="54.127794485539198" lon="28.483855342492461">
        <ele>0</ele>
        <time>2010-01-01T08:01:51Z</time>
      </trkpt>
      <trkpt lat="54.130808701738715" lon="28.479717364534736">
        <ele>0</ele>
        <time>2010-01-01T08:04:25Z</time>
      </trkpt>
      <trkpt lat="54.131575562059879" lon="28.479052176699042">
        <ele>0</ele>
        <time>2010-01-01T08:05:00Z</time>
      </trkpt>
      <trkpt lat="54.132091049104929" lon="28.479567160829902">
        <ele>0</ele>
        <time>2010-01-01T08:05:24Z</time>
      </trkpt>
      <trkpt lat="54.132493380457163" lon="28.477464308962226">
        <ele>0</ele>
        <time>2010-01-01T08:06:16Z</time>
      </trkpt>
      <trkpt lat="54.133423771709204" lon="28.474181285127997">
        <ele>0</ele>
        <time>2010-01-01T08:07:41Z</time>
      </trkpt>
      <trkpt lat="54.134291214868426" lon="28.471735110506415">
        <ele>0</ele>
        <time>2010-01-01T08:08:48Z</time>
      </trkpt>
      <trkpt lat="54.134429516270757" lon="28.469954039901495">
        <ele>0</ele>
        <time>2010-01-01T08:09:30Z</time>
      </trkpt>
      <trkpt lat="54.133473979309201" lon="28.466392150148749">
        <ele>0</ele>
        <time>2010-01-01T08:11:02Z</time>
      </trkpt>
      <trkpt lat="54.132971148937941" lon="28.462551226839423">
        <ele>0</ele>
        <time>2010-01-01T08:12:35Z</time>
      </trkpt>
      <trkpt lat="54.132820274680853" lon="28.460512747988105">
        <ele>0</ele>
        <time>2010-01-01T08:13:23Z</time>
      </trkpt>
      <trkpt lat="54.131236849352717" lon="28.454426983371377">
        <ele>0</ele>
        <time>2010-01-01T08:15:59Z</time>
      </trkpt>
      <trkpt lat="54.131148839369416" lon="28.449835041537881">
        <ele>0</ele>
        <time>2010-01-01T08:17:47Z</time>
      </trkpt>
      <trkpt lat="54.131274567916989" lon="28.445951202884316">
        <ele>0</ele>
        <time>2010-01-01T08:19:18Z</time>
      </trkpt>
      <trkpt lat="54.130922527983785" lon="28.442603806033731">
        <ele>0</ele>
        <time>2010-01-01T08:20:38Z</time>
      </trkpt>
      <trkpt lat="54.130546851083636" lon="28.434308152645826">
        <ele>0</ele>
        <time>2010-01-01T08:23:53Z</time>
      </trkpt>
      <trkpt lat="54.134157858788967" lon="28.422219855710864">
        <ele>0</ele>
        <time>2010-01-01T08:29:11Z</time>
      </trkpt>
      <trkpt lat="54.132070848718286" lon="28.419451816007495">
        <ele>0</ele>
        <time>2010-01-01T08:30:57Z</time>
      </trkpt>
      <trkpt lat="54.129456784576178" lon="28.416334502398968">
        <ele>165.94140625</ele>
      </trkpt>
      <trkpt lat="54.11957535892725" lon="28.410262065008283">
        <ele>160.6015625</ele>
      </trkpt>
      <trkpt lat="54.115443080663681" lon="28.405404165387154">
        <ele>169.2734375</ele>
      </trkpt>
      <trkpt lat="54.115083748474717" lon="28.404796896502376">
        <ele>170.6640625</ele>
      </trkpt>
      <trkpt lat="54.109693849459291" lon="28.395688282325864">
        <ele>169.5390625</ele>
      </trkpt>
      <trkpt lat="54.109334517270327" lon="28.395384689792991">
        <ele>168.47265625</ele>
      </trkpt>
      <trkpt lat="54.107717564329505" lon="28.391741244122386">
        <ele>166.13671875</ele>
      </trkpt>
      <trkpt lat="54.107717564329505" lon="28.391437651589513">
        <ele>166.3359375</ele>
      </trkpt>
      <trkpt lat="54.105920987203717" lon="28.385365214198828">
        <ele>177.57421875</ele>
      </trkpt>
      <trkpt lat="54.105381947010756" lon="28.38384716771543">
        <ele>175.609375</ele>
      </trkpt>
      <trkpt lat="54.104303950443864" lon="28.382025444880128">
        <ele>172.83203125</ele>
      </trkpt>
      <trkpt lat="54.103585286065936" lon="28.380507314577699">
        <ele>168.296875</ele>
      </trkpt>
      <trkpt lat="54.103226037696004" lon="28.379596453160048">
        <ele>165.56640625</ele>
      </trkpt>
      <trkpt lat="54.102327665314078" lon="28.374434961006045">
        <ele>165.9140625</ele>
      </trkpt>
      <trkpt lat="54.101968333125114" lon="28.372613238170743">
        <ele>164.30859375</ele>
      </trkpt>
      <trkpt lat="54.102471498772502" lon="28.370700487866998">
        <ele>160.97265625</ele>
      </trkpt>
      <trkpt lat="54.104106388986111" lon="28.368575172498822">
        <ele>164.7109375</ele>
      </trkpt>
      <trkpt lat="54.104420794174075" lon="28.368043843656778">
        <ele>164.89453125</ele>
      </trkpt>
      <trkpt lat="54.104483658447862" lon="28.367831278592348">
        <ele>164.89453125</ele>
      </trkpt>
      <trkpt lat="54.105175416916609" lon="28.361986577510834">
        <ele>165.265625</ele>
      </trkpt>
      <trkpt lat="54.105112552642822" lon="28.361348966136575">
        <ele>166.6796875</ele>
      </trkpt>
      <trkpt lat="54.105175416916609" lon="28.360711354762316">
        <ele>168.92578125</ele>
      </trkpt>
      <trkpt lat="54.105301145464182" lon="28.359967544674873">
        <ele>170.578125</ele>
      </trkpt>
      <trkpt lat="54.105426957830787" lon="28.359223650768399">
        <ele>172.21484375</ele>
      </trkpt>
      <trkpt lat="54.105301145464182" lon="28.35635444149375">
        <ele>170.91015625</ele>
      </trkpt>
      <trkpt lat="54.105175416916609" lon="28.355716830119491">
        <ele>170.98828125</ele>
      </trkpt>
      <trkpt lat="54.105112552642822" lon="28.355610547587276">
        <ele>170.98828125</ele>
      </trkpt>
      <trkpt lat="54.104923876002431" lon="28.353804079815745">
        <ele>169.2421875</ele>
      </trkpt>
      <trkpt lat="54.104923876002431" lon="28.353166468441486">
        <ele>169.8359375</ele>
      </trkpt>
      <trkpt lat="54.104986740276217" lon="28.352953903377056">
        <ele>170.046875</ele>
      </trkpt>
      <trkpt lat="54.10555268637836" lon="28.352103810757399">
        <ele>169.49609375</ele>
      </trkpt>
      <trkpt lat="54.107313388958573" lon="28.349234601482749">
        <ele>170.08203125</ele>
      </trkpt>
      <trkpt lat="54.107313388958573" lon="28.347321767359972">
        <ele>167.8125</ele>
      </trkpt>
      <trkpt lat="54.107061848044395" lon="28.347002919763327">
        <ele>166.06640625</ele>
      </trkpt>
      <trkpt lat="54.104357929900289" lon="28.34349618293345">
        <ele>167.94140625</ele>
      </trkpt>
      <trkpt lat="54.104169253259897" lon="28.342964854091406">
        <ele>168.390625</ele>
      </trkpt>
      <trkpt lat="54.104106388986111" lon="28.342539723962545">
        <ele>169.0234375</ele>
      </trkpt>
      <trkpt lat="54.103100309148431" lon="28.340308126062155">
        <ele>170.78515625</ele>
      </trkpt>
      <trkpt lat="54.103037444874644" lon="28.340308126062155">
        <ele>170.734375</ele>
      </trkpt>
      <trkpt lat="54.102157093584538" lon="28.3406269736588">
        <ele>170.07421875</ele>
      </trkpt>
    </trkseg>
  </trk>

</gpx>
